Time;durP1;ratioP1;P1;durP2;ratioP2;P2;SDS_P1;SDS_P2;PMS_P1;PMS_P2;Temp;Humidity;BMP_temperature;BMP_pressure;BME280_temperature;BME280_humidity;BME280_pressure;Samples;Min_cycle;Max_cycle;Signal;HPM_P1;HPM_P2
2022/02/26 00:00:06;;;;;;;;;;;;;;;12.55;44.27;101675.91;145002;926;1017;-89
2022/02/26 00:05:08;;;;;;;;;;;;;;;12.55;44.26;101683.72;145002;565;1481;-89
2022/02/26 00:07:35;;;;;;;;;;;;;;;12.54;44.38;101681.97;145002;922;1021;-88
2022/02/26 00:10:03;;;;;;;;;;;;;;;12.54;44.13;101685.44;145002;922;1017;-89
2022/02/26 00:12:35;;;;;;;;;;;;;;;12.55;44.22;101671.59;145002;922;1016;-90
2022/02/26 00:15:02;;;;;;;;;;;;;;;12.55;44.26;101662.88;145002;921;1017;-89
2022/02/26 00:17:31;;;;;;;;;;;;;;;12.51;44.43;101674.91;145002;922;1016;-88
2022/02/26 00:19:58;;;;;;;;;;;;;;;12.55;44.55;101682.00;145002;922;1017;-86
2022/02/26 00:22:40;;;;;;;;;;;;;;;12.55;44.55;101686.31;145002;922;1016;-89
2022/02/26 00:27:51;;;;;;;;;;;;;;;12.60;44.45;101689.97;145002;577;1420;-89
2022/02/26 00:30:17;;;;;;;;;;;;;;;12.58;44.50;101689.03;145002;926;1018;-90
2022/02/26 00:32:43;;;;;;;;;;;;;;;12.56;44.61;101682.88;145002;919;1016;-88
2022/02/26 00:35:09;;;;;;;;;;;;;;;12.51;44.57;101693.12;145002;923;1017;-89
2022/02/26 00:37:35;;;;;;;;;;;;;;;12.49;44.74;101689.59;145002;919;1017;-89
2022/02/26 00:40:02;;;;;;;;;;;;;;;12.44;44.85;101676.41;145002;927;1017;-89
2022/02/26 00:42:28;;;;;;;;;;;;;;;12.43;44.90;101671.13;145002;923;1017;-90
2022/02/26 00:44:56;;;;;;;;;;;;;;;12.42;44.86;101685.84;145002;927;1018;-88
2022/02/26 00:47:25;;;;;;;;;;;;;;;12.41;44.74;101677.97;145002;923;1020;-91
2022/02/26 01:00:07;;;;;;;;;;;;;;;12.30;44.93;101677.59;145002;593;1364;-87
2022/02/26 01:02:33;;;;;;;;;;;;;;;12.21;45.20;101670.31;145002;923;1019;-89
2022/02/26 01:05:02;;;;;;;;;;;;;;;12.21;45.18;101667.69;145002;923;1018;-90
2022/02/26 01:07:31;;;;;;;;;;;;;;;12.19;44.98;101673.69;145002;922;1020;-89
2022/02/26 01:09:58;;;;;;;;;;;;;;;12.17;44.94;101665.84;145002;923;1017;-89
2022/02/26 01:12:27;;;;;;;;;;;;;;;12.15;44.98;101678.78;145002;923;1018;-89
2022/02/26 01:14:53;;;;;;;;;;;;;;;11.98;45.21;101678.13;145002;922;1016;-89
2022/02/26 01:17:20;;;;;;;;;;;;;;;11.91;45.46;101677.78;145002;923;1016;-88
2022/02/26 01:19:46;;;;;;;;;;;;;;;11.81;45.33;101681.72;145002;617;1486;-90
2022/02/26 01:22:12;;;;;;;;;;;;;;;11.85;45.55;101681.03;145002;922;1017;-89
2022/02/26 01:24:38;;;;;;;;;;;;;;;11.88;45.30;101678.56;145002;923;1016;-89
2022/02/26 01:27:08;;;;;;;;;;;;;;;11.93;45.21;101673.53;145002;887;1017;-87
2022/02/26 01:34:41;;;;;;;;;;;;;;;11.92;45.19;101670.06;145002;932;1020;-89
2022/02/26 01:47:38;;;;;;;;;;;;;;;12.09;45.49;101670.75;145002;466;1436;-89
2022/02/26 01:50:06;;;;;;;;;;;;;;;12.11;45.13;101665.59;145002;923;1019;-87
2022/02/26 01:52:32;;;;;;;;;;;;;;;12.12;45.31;101669.94;145002;917;1016;-89
2022/02/26 01:54:59;;;;;;;;;;;;;;;12.10;45.33;101672.50;145002;922;1017;-91
2022/02/26 01:57:28;;;;;;;;;;;;;;;12.10;45.33;101671.63;145002;918;1021;-88
2022/02/26 01:59:56;;;;;;;;;;;;;;;12.05;45.52;101654.94;145002;922;1017;-89
2022/02/26 02:02:25;;;;;;;;;;;;;;;12.04;45.55;101653.16;145002;918;1017;-89
2022/02/26 02:04:51;;;;;;;;;;;;;;;12.04;45.68;101661.88;145002;922;1017;-88
2022/02/26 02:07:18;;;;;;;;;;;;;;;12.03;45.69;101665.28;145002;918;1019;-88
2022/02/26 02:17:30;;;;;;;;;;;;;;;12.06;45.81;101674.94;145002;632;1371;-89
2022/02/26 02:19:57;;;;;;;;;;;;;;;12.08;45.68;101673.28;145002;592;1343;-91
2022/02/26 02:22:23;;;;;;;;;;;;;;;12.10;46.25;101658.59;145002;924;1017;-88
2022/02/26 02:24:50;;;;;;;;;;;;;;;12.07;45.84;101661.09;145002;925;1017;-89
2022/02/26 02:27:17;;;;;;;;;;;;;;;12.07;45.89;101667.16;145002;925;1016;-88
2022/02/26 02:29:46;;;;;;;;;;;;;;;12.07;46.04;101669.78;145002;925;1018;-89
2022/02/26 02:32:14;;;;;;;;;;;;;;;12.05;45.87;101666.22;145002;925;1017;-88
2022/02/26 02:34:43;;;;;;;;;;;;;;;12.03;45.79;101680.03;145002;925;1022;-89
2022/02/26 02:37:10;;;;;;;;;;;;;;;12.01;46.10;101673.84;145002;924;1018;-88
2022/02/26 02:39:36;;;;;;;;;;;;;;;12.01;45.99;101673.84;145002;925;1017;-88
2022/02/26 02:44:38;;;;;;;;;;;;;;;11.98;46.19;101672.91;145002;779;1214;-88
2022/02/26 02:47:04;;;;;;;;;;;;;;;11.98;46.33;101679.84;145002;925;1017;-89
2022/02/26 02:49:31;;;;;;;;;;;;;;;12.00;46.28;101679.91;145002;925;1017;-88
2022/02/26 02:51:57;;;;;;;;;;;;;;;11.96;46.06;101679.78;145002;925;1021;-89
2022/02/26 02:54:23;;;;;;;;;;;;;;;11.96;46.30;101690.19;145002;921;1019;-89
2022/02/26 02:56:49;;;;;;;;;;;;;;;11.96;46.23;101686.69;145002;925;1021;-87
2022/02/26 02:59:18;;;;;;;;;;;;;;;11.93;46.20;101687.47;145002;925;1020;-89
2022/02/26 03:01:44;;;;;;;;;;;;;;;11.87;46.44;101686.31;145002;925;1017;-87
2022/02/26 03:04:20;;;;;;;;;;;;;;;11.85;46.28;101686.25;145002;921;1017;-90
2022/02/26 03:11:54;;;;;;;;;;;;;;;11.87;46.32;101678.50;145002;930;1022;-90
2022/02/26 03:14:21;;;;;;;;;;;;;;;11.87;46.14;101688.91;145002;925;1016;-89
2022/02/26 03:19:18;;;;;;;;;;;;;;;11.82;46.33;101688.72;145002;932;1017;-89
2022/02/26 03:21:47;;;;;;;;;;;;;;;11.83;46.12;101687.87;145002;922;1017;-89
2022/02/26 03:24:16;;;;;;;;;;;;;;;11.85;46.23;101690.53;145002;604;1412;-88
2022/02/26 03:37:06;;;;;;;;;;;;;;;11.56;45.77;101691.13;145002;574;1423;-89
2022/02/26 03:39:44;;;;;;;;;;;;;;;;;;;;;
2022/02/26 03:57:42;;;;;;;;;;;;;;;11.72;45.48;101704.75;145001;709;2000;-90
2022/02/26 04:00:09;;;;;;;;;;;;;;;11.72;45.75;101704.75;145002;943;1018;-89
2022/02/26 04:07:46;;;;;;;;;;;;;;;11.70;45.83;101706.44;145002;595;1395;-88
2022/02/26 04:10:13;;;;;;;;;;;;;;;11.70;45.87;101707.31;145002;928;1016;-89
2022/02/26 04:12:39;;;;;;;;;;;;;;;11.46;46.19;101712.38;145002;922;1018;-89
2022/02/26 04:20:16;;;;;;;;;;;;;;;11.51;46.33;101720.38;145002;582;1413;-88
2022/02/26 04:22:42;;;;;;;;;;;;;;;11.53;46.03;101717.03;145002;925;1016;-91
2022/02/26 04:25:11;;;;;;;;;;;;;;;11.51;46.09;101721.25;145002;925;1022;-89
2022/02/26 04:27:38;;;;;;;;;;;;;;;11.46;46.12;101717.59;145002;924;1021;-91
2022/02/26 04:30:05;;;;;;;;;;;;;;;11.47;46.01;101714.16;145002;924;1016;-89
2022/02/26 04:32:33;;;;;;;;;;;;;;;11.46;46.36;101722.78;145002;925;1017;-88
2022/02/26 04:47:55;;;;;;;;;;;;;;;11.43;45.61;101735.66;145002;580;1430;-88
2022/02/26 04:55:34;;;;;;;;;;;;;;;11.43;46.00;101735.66;145002;572;1428;-90
2022/02/26 04:58:00;;;;;;;;;;;;;;;11.47;45.85;101742.78;145002;924;1016;-91
2022/02/26 05:03:02;;;;;;;;;;;;;;;11.51;45.55;101742.06;145002;593;1392;-88
2022/02/26 05:05:29;;;;;;;;;;;;;;;11.52;45.68;101738.66;145002;924;1016;-86
2022/02/26 05:07:56;;;;;;;;;;;;;;;11.52;45.61;101736.03;145002;920;1016;-91
2022/02/26 05:10:24;;;;;;;;;;;;;;;11.50;45.48;101755.00;145002;924;1017;-90
2022/02/26 05:12:51;;;;;;;;;;;;;;;11.48;45.32;101760.13;145002;920;1016;-88
2022/02/26 05:15:19;;;;;;;;;;;;;;;11.49;45.54;101759.31;145002;924;1020;-88
2022/02/26 05:17:45;;;;;;;;;;;;;;;11.34;46.10;101758.66;145002;920;1016;-89
2022/02/26 05:20:12;;;;;;;;;;;;;;;11.24;45.72;101750.44;145002;924;1018;-90
2022/02/26 05:22:40;;;;;;;;;;;;;;;11.32;46.03;101752.50;145002;920;1016;-88
2022/02/26 05:25:07;;;;;;;;;;;;;;;11.34;45.89;101751.75;145002;924;1017;-89
2022/02/26 05:27:34;;;;;;;;;;;;;;;11.35;45.90;101755.25;145002;920;1016;-90
2022/02/26 05:30:01;;;;;;;;;;;;;;;11.34;45.60;101763.84;145003;924;1016;-89
2022/02/26 05:32:27;;;;;;;;;;;;;;;11.16;46.20;101769.16;145003;920;1021;-88
2022/02/26 05:34:54;;;;;;;;;;;;;;;11.14;46.30;101771.66;145003;924;1018;-88
2022/02/26 05:37:20;;;;;;;;;;;;;;;11.20;46.07;101768.47;145003;916;1017;-89
2022/02/26 05:39:47;;;;;;;;;;;;;;;11.23;46.25;101769.47;145003;924;1018;-91
2022/02/26 05:42:13;;;;;;;;;;;;;;;11.27;46.22;101762.69;145003;920;1019;-89
2022/02/26 05:44:39;;;;;;;;;;;;;;;11.32;46.23;101765.50;145002;924;2000;-90
2022/02/26 05:47:07;;;;;;;;;;;;;;;11.36;46.12;101772.63;145003;921;1019;-89
2022/02/26 05:49:36;;;;;;;;;;;;;;;11.40;46.15;101771.91;145003;924;1016;-91
2022/02/26 05:59:44;;;;;;;;;;;;;;;11.61;45.97;101788.47;145002;585;1400;-88
2022/02/26 06:02:10;;;;;;;;;;;;;;;11.68;45.94;101787.00;145002;925;1018;-89
2022/02/26 06:04:40;;;;;;;;;;;;;;;11.74;45.97;101781.16;145002;920;1018;-91
2022/02/26 06:07:12;;;;;;;;;;;;;;;11.74;45.92;101778.53;145002;925;1015;-92
2022/02/26 06:14:46;;;;;;;;;;;;;;;11.88;46.04;101777.44;145002;616;1370;-87
2022/02/26 06:22:25;;;;;;;;;;;;;;;12.24;45.65;101790.19;145002;768;1225;-89
2022/02/26 06:24:51;;;;;;;;;;;;;;;12.36;45.28;101801.91;145002;925;1019;-90
2022/02/26 06:27:17;;;;;;;;;;;;;;;12.45;45.24;101800.56;145002;920;1018;-90
2022/02/26 06:29:46;;;;;;;;;;;;;;;12.55;45.16;101799.22;145001;921;2000;-91
2022/02/26 06:32:12;;;;;;;;;;;;;;;12.63;45.04;101792.59;145002;921;1016;-89
2022/02/26 06:34:41;;;;;;;;;;;;;;;12.73;45.09;101791.22;145002;924;1020;-91
2022/02/26 06:39:40;;;;;;;;;;;;;;;12.79;44.98;101791.44;145002;890;1018;-89
2022/02/26 06:42:07;;;;;;;;;;;;;;;12.85;45.08;101786.47;145001;922;2000;-90
2022/02/26 06:47:08;;;;;;;;;;;;;;;13.03;45.00;101788.88;145002;607;1413;-86
2022/02/26 06:49:37;;;;;;;;;;;;;;;13.07;44.93;101795.06;145002;905;1020;-84
2022/02/26 06:52:03;;;;;;;;;;;;;;;13.10;45.22;101786.47;145002;921;1018;-89
2022/02/26 07:02:18;;;;;;;;;;;;;;;13.59;44.91;101802.19;145002;929;1021;-90
2022/02/26 07:12:30;;;;;;;;;;;;;;;13.89;45.82;101818.84;145002;589;1403;-91
2022/02/26 07:15:00;;;;;;;;;;;;;;;14.23;46.05;101820.81;145002;925;1019;-90
2022/02/26 07:17:29;;;;;;;;;;;;;;;14.55;45.45;101813.13;145002;921;1015;-87
2022/02/26 07:20:01;;;;;;;;;;;;;;;14.89;45.18;101816.81;145001;454;2000;-88
2022/02/26 07:22:42;;;;;;;;;;;;;;;15.12;45.35;101809.63;145001;589;2000;-87
2022/02/26 07:25:17;;;;;;;;;;;;;;;15.33;45.19;101803.22;145001;925;2000;-88
2022/02/26 07:27:44;;;;;;;;;;;;;;;15.52;45.45;101808.09;145002;920;1015;-90
2022/02/26 07:30:12;;;;;;;;;;;;;;;15.77;45.04;101803.53;145002;895;1020;-90
2022/02/26 07:35:10;;;;;;;;;;;;;;;16.22;44.83;101809.87;145002;563;1412;-90
2022/02/26 07:40:41;;;;;;;;;;;;;;;16.59;44.91;101814.25;145001;932;2000;-89
2022/02/26 07:45:47;;;;;;;;;;;;;;;17.03;44.41;101806.47;145002;624;1378;-89
2022/02/26 07:48:14;;;;;;;;;;;;;;;17.20;44.27;101813.81;145002;910;1022;-89
2022/02/26 07:50:40;;;;;;;;;;;;;;;17.27;44.44;101809.56;145002;919;1019;-89
2022/02/26 07:53:07;;;;;;;;;;;;;;;17.41;43.90;101811.59;145002;920;1016;-90
2022/02/26 07:55:34;;;;;;;;;;;;;;;17.47;43.94;101810.81;145002;919;1017;-90
2022/02/26 07:58:04;;;;;;;;;;;;;;;17.25;43.69;101804.28;145002;919;1016;-89
2022/02/26 08:00:30;;;;;;;;;;;;;;;17.40;44.45;101809.84;145002;920;1017;-92
2022/02/26 08:02:56;;;;;;;;;;;;;;;17.56;44.23;101808.38;145002;919;1020;-90
2022/02/26 08:05:22;;;;;;;;;;;;;;;17.68;44.17;101791.94;145002;919;1021;-87
2022/02/26 08:07:55;;;;;;;;;;;;;;;17.85;43.82;101787.00;145002;920;1019;-89
2022/02/26 08:10:22;;;;;;;;;;;;;;;17.93;43.75;101782.78;145002;920;1017;-92
2022/02/26 08:12:49;;;;;;;;;;;;;;;17.17;40.40;101769.13;145002;919;1019;-90
2022/02/26 08:15:15;;;;;;;;;;;;;;;16.96;44.13;101783.59;145002;920;1017;-92
2022/02/26 08:17:45;;;;;;;;;;;;;;;17.16;43.70;101777.84;145002;920;1017;-92
2022/02/26 08:20:12;;;;;;;;;;;;;;;17.33;41.71;101786.06;145002;919;1019;-91
2022/02/26 08:22:38;;;;;;;;;;;;;;;17.56;42.85;101796.97;145002;920;1016;-90
2022/02/26 08:27:36;;;;;;;;;;;;;;;16.26;41.17;101799.50;145002;929;1017;-88
2022/02/26 08:30:04;;;;;;;;;;;;;;;16.87;43.14;101789.53;145002;923;1017;-88
2022/02/26 08:32:30;;;;;;;;;;;;;;;16.44;43.36;101798.16;145002;923;1018;-88
2022/02/26 08:34:56;;;;;;;;;;;;;;;16.89;42.60;101797.44;145002;923;1018;-89
2022/02/26 08:37:22;;;;;;;;;;;;;;;17.10;42.96;101806.59;145002;923;1021;-87
2022/02/26 08:39:49;;;;;;;;;;;;;;;17.43;42.20;101800.25;145002;923;1017;-90
2022/02/26 08:42:15;;;;;;;;;;;;;;;17.58;41.33;101800.53;145002;922;1021;-88
2022/02/26 08:44:41;;;;;;;;;;;;;;;17.77;41.70;101796.50;145002;923;1017;-88
2022/02/26 08:47:07;;;;;;;;;;;;;;;17.69;39.07;101798.97;145002;919;1018;-89
2022/02/26 08:49:34;;;;;;;;;;;;;;;17.81;41.31;101792.16;145002;922;1018;-86
2022/02/26 08:52:00;;;;;;;;;;;;;;;17.93;41.10;101800.28;145002;922;1020;-88
2022/02/26 08:54:27;;;;;;;;;;;;;;;18.01;41.14;101801.28;145002;923;1020;-87
2022/02/26 08:57:00;;;;;;;;;;;;;;;18.12;40.26;101798.84;145002;922;1018;-90
2022/02/26 11:16:26;;;;;;;;;;;;;;;16.19;49.44;101711.13;145002;587;1414;-90
2022/02/26 11:26:41;;;;;;;;;;;;;;;16.15;50.34;101706.69;145002;564;1479;-86
2022/02/26 11:39:37;;;;;;;;;;;;;;;16.81;47.98;101692.38;145002;566;1416;-89
2022/02/26 13:38:30;;;;;;;;;;;;;;;14.78;41.90;101617.84;145002;614;1493;-89
2022/02/26 13:41:06;;;;;;;;;;;;;;;14.76;41.74;101626.47;145002;920;1016;-91
2022/02/26 13:43:41;;;;;;;;;;;;;;;14.52;42.11;101624.91;145002;920;1016;-88
2022/02/26 14:50:50;;;;;;;;;;;;;;;13.83;45.04;101655.09;145002;566;1380;-91
2022/02/26 14:53:21;;;;;;;;;;;;;;;13.97;44.47;101639.87;145002;923;1017;-91
2022/02/26 21:36:38;;;;;;;;;;;;;;;12.78;50.26;101716.72;145002;929;1016;-91
2022/02/26 21:39:15;;;;;;;;;;;;;;;12.61;50.38;101707.38;145002;922;1015;-89
2022/02/26 22:04:58;;;;;;;;;;;;;;;12.78;47.93;101687.16;145002;598;1369;-87
2022/02/26 22:07:31;;;;;;;;;;;;;;;12.61;48.21;101689.16;145002;923;1017;-88
2022/02/26 22:46:14;;;;;;;;;;;;;;;12.86;47.03;101651.84;145002;642;1369;-87
2022/02/26 22:48:46;;;;;;;;;;;;;;;12.85;46.93;101655.28;145002;923;1021;-86
2022/02/26 22:51:16;;;;;;;;;;;;;;;12.71;47.46;101657.41;145002;922;1016;-90
2022/02/26 22:53:42;;;;;;;;;;;;;;;12.73;47.48;101660.06;145002;923;1018;-87
2022/02/26 22:56:09;;;;;;;;;;;;;;;12.69;47.77;101656.44;145002;923;1017;-88
2022/02/26 22:58:38;;;;;;;;;;;;;;;12.60;48.01;101657.00;145002;922;1016;-90
2022/02/26 23:03:39;;;;;;;;;;;;;;;12.76;47.90;101649.72;145002;928;1017;-90
2022/02/26 23:06:06;;;;;;;;;;;;;;;12.84;47.96;101648.31;145002;922;1018;-91
2022/02/26 23:13:39;;;;;;;;;;;;;;;12.58;50.12;101645.62;145001;929;2000;-91
2022/02/26 23:31:29;;;;;;;;;;;;;;;12.54;50.40;101625.53;145002;940;1021;-90
2022/02/26 23:33:55;;;;;;;;;;;;;;;12.64;49.96;101616.31;145002;923;1016;-89
2022/02/26 23:36:21;;;;;;;;;;;;;;;12.55;49.58;101619.50;145002;926;1016;-88
2022/02/26 23:38:53;;;;;;;;;;;;;;;12.28;49.79;101609.84;145002;922;1017;-90
2022/02/26 23:41:21;;;;;;;;;;;;;;;12.06;50.49;101623.78;145002;926;1018;-90
2022/02/26 23:43:48;;;;;;;;;;;;;;;12.31;50.28;101594.34;145001;922;2000;-91
2022/02/26 23:46:16;;;;;;;;;;;;;;;12.45;49.37;101580.91;145002;926;1020;-91
2022/02/26 23:56:35;;;;;;;;;;;;;;;12.39;48.22;101581.59;145002;611;1362;-89
2022/02/26 23:59:01;;;;;;;;;;;;;;;12.38;48.39;101589.37;145002;925;1020;-89
